sensor_id;sensor_type;location;lat;lon;timestamp;P1;durP1;ratioP1;P2;durP2;ratioP2
49101;SDS011;34913;47.520;19.186;2023-08-20T00:01:05;13.57;;;11.65;;
49101;SDS011;34913;47.520;19.186;2023-08-20T00:03:32;11.75;;;10.50;;
49101;SDS011;34913;47.520;19.186;2023-08-20T00:05:58;14.48;;;10.95;;
49101;SDS011;34913;47.520;19.186;2023-08-20T00:08:24;13.10;;;10.93;;
49101;SDS011;34913;47.520;19.186;2023-08-20T00:10:49;12.57;;;11.27;;
49101;SDS011;34913;47.520;19.186;2023-08-20T00:13:15;13.95;;;11.95;;
49101;SDS011;34913;47.520;19.186;2023-08-20T00:15:40;12.45;;;11.25;;
49101;SDS011;34913;47.520;19.186;2023-08-20T00:18:06;14.38;;;10.95;;
49101;SDS011;34913;47.520;19.186;2023-08-20T00:20:32;13.63;;;11.27;;
49101;SDS011;34913;47.520;19.186;2023-08-20T00:22:58;12.57;;;11.18;;
49101;SDS011;34913;47.520;19.186;2023-08-20T00:25:24;12.02;;;10.82;;
49101;SDS011;34913;47.520;19.186;2023-08-20T00:27:50;13.18;;;10.60;;
49101;SDS011;34913;47.520;19.186;2023-08-20T00:30:15;11.57;;;10.40;;
49101;SDS011;34913;47.520;19.186;2023-08-20T00:32:40;12.65;;;10.70;;
49101;SDS011;34913;47.520;19.186;2023-08-20T00:35:06;13.10;;;10.70;;
49101;SDS011;34913;47.520;19.186;2023-08-20T00:37:34;15.10;;;10.65;;
49101;SDS011;34913;47.520;19.186;2023-08-20T00:40:00;11.88;;;10.60;;
49101;SDS011;34913;47.520;19.186;2023-08-20T00:42:26;13.60;;;10.60;;
49101;SDS011;34913;47.520;19.186;2023-08-20T00:44:52;12.98;;;10.82;;
49101;SDS011;34913;47.520;19.186;2023-08-20T00:47:18;11.85;;;10.73;;
49101;SDS011;34913;47.520;19.186;2023-08-20T00:49:43;15.43;;;11.25;;
49101;SDS011;34913;47.520;19.186;2023-08-20T00:52:10;14.20;;;10.98;;
49101;SDS011;34913;47.520;19.186;2023-08-20T00:54:42;14.45;;;11.32;;
49101;SDS011;34913;47.520;19.186;2023-08-20T00:57:09;15.63;;;11.63;;
49101;SDS011;34913;47.520;19.186;2023-08-20T00:59:35;14.00;;;11.73;;
49101;SDS011;34913;47.520;19.186;2023-08-20T01:02:02;12.43;;;11.23;;
49101;SDS011;34913;47.520;19.186;2023-08-20T01:04:28;14.45;;;12.05;;
49101;SDS011;34913;47.520;19.186;2023-08-20T01:12:34;13.35;;;11.98;;
49101;SDS011;34913;47.520;19.186;2023-08-20T01:15:00;12.27;;;11.07;;
49101;SDS011;34913;47.520;19.186;2023-08-20T01:17:26;12.05;;;10.85;;
49101;SDS011;34913;47.520;19.186;2023-08-20T01:19:51;13.50;;;11.52;;
49101;SDS011;34913;47.520;19.186;2023-08-20T01:30:51;11.45;;;10.30;;
49101;SDS011;34913;47.520;19.186;2023-08-20T01:33:19;13.52;;;10.68;;
49101;SDS011;34913;47.520;19.186;2023-08-20T01:35:45;12.90;;;10.73;;
49101;SDS011;34913;47.520;19.186;2023-08-20T01:38:10;13.63;;;10.68;;
49101;SDS011;34913;47.520;19.186;2023-08-20T01:40:36;12.32;;;10.00;;
49101;SDS011;34913;47.520;19.186;2023-08-20T01:43:02;12.63;;;11.02;;
49101;SDS011;34913;47.520;19.186;2023-08-20T01:45:27;15.25;;;11.15;;
49101;SDS011;34913;47.520;19.186;2023-08-20T01:47:52;12.52;;;11.15;;
49101;SDS011;34913;47.520;19.186;2023-08-20T01:50:18;12.75;;;11.52;;
49101;SDS011;34913;47.520;19.186;2023-08-20T01:52:44;12.30;;;11.07;;
49101;SDS011;34913;47.520;19.186;2023-08-20T01:55:09;13.32;;;11.60;;
49101;SDS011;34913;47.520;19.186;2023-08-20T01:57:36;12.73;;;11.32;;
49101;SDS011;34913;47.520;19.186;2023-08-20T02:00:02;13.20;;;11.55;;
49101;SDS011;34913;47.520;19.186;2023-08-20T02:02:30;15.77;;;11.65;;
49101;SDS011;34913;47.520;19.186;2023-08-20T02:04:55;14.32;;;11.13;;
49101;SDS011;34913;47.520;19.186;2023-08-20T02:07:21;13.68;;;11.63;;
49101;SDS011;34913;47.520;19.186;2023-08-20T02:09:46;13.25;;;11.93;;
49101;SDS011;34913;47.520;19.186;2023-08-20T02:12:11;13.85;;;12.20;;
49101;SDS011;34913;47.520;19.186;2023-08-20T02:14:37;15.00;;;11.75;;
49101;SDS011;34913;47.520;19.186;2023-08-20T02:17:02;14.65;;;11.48;;
49101;SDS011;34913;47.520;19.186;2023-08-20T02:19:28;16.08;;;11.73;;
49101;SDS011;34913;47.520;19.186;2023-08-20T02:21:54;13.50;;;10.85;;
49101;SDS011;34913;47.520;19.186;2023-08-20T02:24:19;12.70;;;11.40;;
49101;SDS011;34913;47.520;19.186;2023-08-20T02:26:45;13.48;;;11.85;;
49101;SDS011;34913;47.520;19.186;2023-08-20T02:29:10;14.85;;;12.70;;
49101;SDS011;34913;47.520;19.186;2023-08-20T02:31:36;12.98;;;11.40;;
49101;SDS011;34913;47.520;19.186;2023-08-20T02:34:01;12.73;;;10.95;;
49101;SDS011;34913;47.520;19.186;2023-08-20T02:36:27;12.18;;;10.90;;
49101;SDS011;34913;47.520;19.186;2023-08-20T02:38:52;12.32;;;10.90;;
49101;SDS011;34913;47.520;19.186;2023-08-20T02:41:18;13.73;;;10.27;;
49101;SDS011;34913;47.520;19.186;2023-08-20T02:43:43;12.80;;;11.50;;
49101;SDS011;34913;47.520;19.186;2023-08-20T02:46:09;13.25;;;10.48;;
49101;SDS011;34913;47.520;19.186;2023-08-20T02:48:34;13.93;;;10.60;;
49101;SDS011;34913;47.520;19.186;2023-08-20T02:51:00;15.05;;;10.77;;
49101;SDS011;34913;47.520;19.186;2023-08-20T02:53:25;13.75;;;11.23;;
49101;SDS011;34913;47.520;19.186;2023-08-20T02:55:51;12.02;;;10.73;;
49101;SDS011;34913;47.520;19.186;2023-08-20T02:58:16;11.10;;;10.07;;
49101;SDS011;34913;47.520;19.186;2023-08-20T03:00:42;12.32;;;10.40;;
49101;SDS011;34913;47.520;19.186;2023-08-20T03:03:09;17.20;;;11.40;;
49101;SDS011;34913;47.520;19.186;2023-08-20T03:05:35;13.38;;;11.02;;
49101;SDS011;34913;47.520;19.186;2023-08-20T03:08:01;12.40;;;10.63;;
49101;SDS011;34913;47.520;19.186;2023-08-20T03:10:28;13.98;;;10.50;;
49101;SDS011;34913;47.520;19.186;2023-08-20T03:12:54;12.05;;;10.43;;
49101;SDS011;34913;47.520;19.186;2023-08-20T03:15:19;12.18;;;10.82;;
49101;SDS011;34913;47.520;19.186;2023-08-20T03:17:45;11.88;;;10.63;;
49101;SDS011;34913;47.520;19.186;2023-08-20T03:20:10;12.07;;;10.88;;
49101;SDS011;34913;47.520;19.186;2023-08-20T03:22:37;11.60;;;10.50;;
49101;SDS011;34913;47.520;19.186;2023-08-20T03:25:03;11.93;;;10.15;;
49101;SDS011;34913;47.520;19.186;2023-08-20T03:27:29;10.77;;;9.68;;
49101;SDS011;34913;47.520;19.186;2023-08-20T03:29:55;11.25;;;10.05;;
49101;SDS011;34913;47.520;19.186;2023-08-20T03:32:21;11.93;;;10.63;;
49101;SDS011;34913;47.520;19.186;2023-08-20T03:34:47;13.70;;;10.20;;
49101;SDS011;34913;47.520;19.186;2023-08-20T03:37:12;12.45;;;10.48;;
49101;SDS011;34913;47.520;19.186;2023-08-20T03:39:38;12.00;;;9.77;;
49101;SDS011;34913;47.520;19.186;2023-08-20T03:42:03;12.07;;;10.10;;
49101;SDS011;34913;47.520;19.186;2023-08-20T03:44:29;12.95;;;10.50;;
49101;SDS011;34913;47.520;19.186;2023-08-20T03:46:56;11.55;;;10.43;;
49101;SDS011;34913;47.520;19.186;2023-08-20T03:49:22;13.80;;;10.35;;
49101;SDS011;34913;47.520;19.186;2023-08-20T03:51:47;12.25;;;10.68;;
49101;SDS011;34913;47.520;19.186;2023-08-20T03:54:13;13.82;;;10.38;;
49101;SDS011;34913;47.520;19.186;2023-08-20T03:56:38;11.23;;;10.15;;
49101;SDS011;34913;47.520;19.186;2023-08-20T03:59:04;11.38;;;10.18;;
49101;SDS011;34913;47.520;19.186;2023-08-20T04:01:29;11.50;;;10.20;;
49101;SDS011;34913;47.520;19.186;2023-08-20T04:03:55;10.63;;;9.60;;
49101;SDS011;34913;47.520;19.186;2023-08-20T04:06:21;12.75;;;10.18;;
49101;SDS011;34913;47.520;19.186;2023-08-20T04:08:46;13.15;;;9.50;;
49101;SDS011;34913;47.520;19.186;2023-08-20T04:11:11;14.18;;;9.73;;
49101;SDS011;34913;47.520;19.186;2023-08-20T04:13:37;13.25;;;10.70;;
49101;SDS011;34913;47.520;19.186;2023-08-20T04:16:02;13.27;;;10.73;;
49101;SDS011;34913;47.520;19.186;2023-08-20T04:18:28;10.50;;;9.35;;
49101;SDS011;34913;47.520;19.186;2023-08-20T04:20:53;11.68;;;9.55;;
49101;SDS011;34913;47.520;19.186;2023-08-20T04:23:19;11.90;;;9.80;;
49101;SDS011;34913;47.520;19.186;2023-08-20T04:25:45;10.90;;;9.50;;
49101;SDS011;34913;47.520;19.186;2023-08-20T04:28:11;11.10;;;9.82;;
49101;SDS011;34913;47.520;19.186;2023-08-20T04:30:37;13.07;;;9.30;;
49101;SDS011;34913;47.520;19.186;2023-08-20T04:33:03;12.43;;;9.48;;
49101;SDS011;34913;47.520;19.186;2023-08-20T04:35:28;11.70;;;9.20;;
49101;SDS011;34913;47.520;19.186;2023-08-20T04:37:54;10.18;;;8.50;;
49101;SDS011;34913;47.520;19.186;2023-08-20T04:40:19;9.77;;;8.82;;
49101;SDS011;34913;47.520;19.186;2023-08-20T04:42:44;11.60;;;8.82;;
49101;SDS011;34913;47.520;19.186;2023-08-20T04:45:10;11.18;;;8.98;;
49101;SDS011;34913;47.520;19.186;2023-08-20T04:47:36;14.07;;;9.65;;
49101;SDS011;34913;47.520;19.186;2023-08-20T04:50:02;9.55;;;8.50;;
49101;SDS011;34913;47.520;19.186;2023-08-20T04:52:27;12.70;;;9.35;;
49101;SDS011;34913;47.520;19.186;2023-08-20T04:54:53;10.57;;;8.38;;
49101;SDS011;34913;47.520;19.186;2023-08-20T04:57:18;10.02;;;9.02;;
49101;SDS011;34913;47.520;19.186;2023-08-20T04:59:44;10.13;;;8.57;;
49101;SDS011;34913;47.520;19.186;2023-08-20T05:02:11;9.82;;;8.77;;
49101;SDS011;34913;47.520;19.186;2023-08-20T05:04:37;10.23;;;8.95;;
49101;SDS011;34913;47.520;19.186;2023-08-20T05:07:03;10.85;;;9.05;;
49101;SDS011;34913;47.520;19.186;2023-08-20T05:09:29;9.82;;;8.70;;
49101;SDS011;34913;47.520;19.186;2023-08-20T05:11:54;9.00;;;8.10;;
49101;SDS011;34913;47.520;19.186;2023-08-20T05:14:19;10.00;;;8.57;;
49101;SDS011;34913;47.520;19.186;2023-08-20T05:16:45;9.80;;;8.70;;
49101;SDS011;34913;47.520;19.186;2023-08-20T05:19:10;8.40;;;7.60;;
49101;SDS011;34913;47.520;19.186;2023-08-20T05:21:36;12.02;;;7.90;;
49101;SDS011;34913;47.520;19.186;2023-08-20T05:24:01;9.00;;;8.10;;
49101;SDS011;34913;47.520;19.186;2023-08-20T05:26:27;8.65;;;7.75;;
49101;SDS011;34913;47.520;19.186;2023-08-20T05:28:52;9.65;;;7.82;;
49101;SDS011;34913;47.520;19.186;2023-08-20T05:31:18;8.23;;;7.45;;
49101;SDS011;34913;47.520;19.186;2023-08-20T05:33:43;8.27;;;7.47;;
49101;SDS011;34913;47.520;19.186;2023-08-20T05:36:08;8.73;;;7.82;;
49101;SDS011;34913;47.520;19.186;2023-08-20T05:38:34;8.82;;;7.63;;
49101;SDS011;34913;47.520;19.186;2023-08-20T05:40:59;8.05;;;7.18;;
49101;SDS011;34913;47.520;19.186;2023-08-20T05:43:25;8.25;;;7.20;;
49101;SDS011;34913;47.520;19.186;2023-08-20T05:45:50;9.18;;;7.03;;
49101;SDS011;34913;47.520;19.186;2023-08-20T05:48:15;9.82;;;7.03;;
49101;SDS011;34913;47.520;19.186;2023-08-20T05:50:44;7.32;;;6.63;;
49101;SDS011;34913;47.520;19.186;2023-08-20T05:53:09;7.93;;;6.70;;
49101;SDS011;34913;47.520;19.186;2023-08-20T05:55:35;7.07;;;6.35;;
49101;SDS011;34913;47.520;19.186;2023-08-20T05:58:00;8.57;;;6.40;;
49101;SDS011;34913;47.520;19.186;2023-08-20T06:00:26;7.22;;;6.53;;
49101;SDS011;34913;47.520;19.186;2023-08-20T06:02:51;6.63;;;6.03;;
49101;SDS011;34913;47.520;19.186;2023-08-20T06:05:17;7.22;;;6.32;;
49101;SDS011;34913;47.520;19.186;2023-08-20T06:07:42;7.28;;;5.95;;
49101;SDS011;34913;47.520;19.186;2023-08-20T06:10:08;8.68;;;6.18;;
49101;SDS011;34913;47.520;19.186;2023-08-20T06:12:33;9.32;;;6.07;;
49101;SDS011;34913;47.520;19.186;2023-08-20T06:14:59;9.60;;;5.60;;
49101;SDS011;34913;47.520;19.186;2023-08-20T06:17:24;11.52;;;5.57;;
49101;SDS011;34913;47.520;19.186;2023-08-20T06:19:50;8.05;;;5.70;;
49101;SDS011;34913;47.520;19.186;2023-08-20T06:22:15;8.18;;;5.90;;
49101;SDS011;34913;47.520;19.186;2023-08-20T06:24:41;5.68;;;5.05;;
49101;SDS011;34913;47.520;19.186;2023-08-20T06:27:06;6.03;;;5.35;;
49101;SDS011;34913;47.520;19.186;2023-08-20T06:29:32;8.27;;;5.30;;
49101;SDS011;34913;47.520;19.186;2023-08-20T06:31:57;7.35;;;5.15;;
49101;SDS011;34913;47.520;19.186;2023-08-20T06:34:22;8.10;;;5.47;;
49101;SDS011;34913;47.520;19.186;2023-08-20T06:36:48;5.47;;;4.97;;
49101;SDS011;34913;47.520;19.186;2023-08-20T06:39:14;8.30;;;5.38;;
49101;SDS011;34913;47.520;19.186;2023-08-20T06:41:40;5.60;;;5.05;;
49101;SDS011;34913;47.520;19.186;2023-08-20T06:44:06;5.75;;;5.07;;
49101;SDS011;34913;47.520;19.186;2023-08-20T06:46:31;6.60;;;4.97;;
49101;SDS011;34913;47.520;19.186;2023-08-20T06:48:57;5.57;;;5.07;;
49101;SDS011;34913;47.520;19.186;2023-08-20T06:51:22;8.07;;;5.20;;
49101;SDS011;34913;47.520;19.186;2023-08-20T06:53:48;6.38;;;5.10;;
49101;SDS011;34913;47.520;19.186;2023-08-20T06:56:14;7.85;;;5.05;;
49101;SDS011;34913;47.520;19.186;2023-08-20T06:58:40;5.60;;;4.82;;
49101;SDS011;34913;47.520;19.186;2023-08-20T07:01:06;5.68;;;5.07;;
49101;SDS011;34913;47.520;19.186;2023-08-20T07:03:41;6.13;;;5.00;;
49101;SDS011;34913;47.520;19.186;2023-08-20T07:06:08;5.47;;;4.80;;
49101;SDS011;34913;47.520;19.186;2023-08-20T07:08:34;5.47;;;4.43;;
49101;SDS011;34913;47.520;19.186;2023-08-20T07:11:00;7.35;;;5.22;;
49101;SDS011;34913;47.520;19.186;2023-08-20T07:13:26;5.32;;;4.88;;
49101;SDS011;34913;47.520;19.186;2023-08-20T07:15:51;5.65;;;5.07;;
49101;SDS011;34913;47.520;19.186;2023-08-20T07:18:17;9.25;;;4.55;;
49101;SDS011;34913;47.520;19.186;2023-08-20T07:20:42;6.30;;;4.90;;
49101;SDS011;34913;47.520;19.186;2023-08-20T07:23:08;6.82;;;4.85;;
49101;SDS011;34913;47.520;19.186;2023-08-20T07:25:37;5.70;;;4.97;;
49101;SDS011;34913;47.520;19.186;2023-08-20T07:28:06;6.45;;;4.90;;
49101;SDS011;34913;47.520;19.186;2023-08-20T07:30:33;5.38;;;4.88;;
49101;SDS011;34913;47.520;19.186;2023-08-20T07:33:00;7.65;;;5.10;;
49101;SDS011;34913;47.520;19.186;2023-08-20T07:35:26;5.55;;;4.97;;
49101;SDS011;34913;47.520;19.186;2023-08-20T07:37:51;16.80;;;5.22;;
49101;SDS011;34913;47.520;19.186;2023-08-20T07:40:17;6.18;;;4.63;;
49101;SDS011;34913;47.520;19.186;2023-08-20T07:42:42;4.82;;;4.43;;
49101;SDS011;34913;47.520;19.186;2023-08-20T07:45:08;6.30;;;5.10;;
49101;SDS011;34913;47.520;19.186;2023-08-20T07:47:38;5.05;;;4.30;;
49101;SDS011;34913;47.520;19.186;2023-08-20T07:50:04;4.88;;;4.40;;
49101;SDS011;34913;47.520;19.186;2023-08-20T07:52:33;7.18;;;5.30;;
49101;SDS011;34913;47.520;19.186;2023-08-20T07:54:59;8.02;;;4.93;;
49101;SDS011;34913;47.520;19.186;2023-08-20T07:57:25;6.88;;;4.80;;
49101;SDS011;34913;47.520;19.186;2023-08-20T07:59:50;4.95;;;4.45;;
49101;SDS011;34913;47.520;19.186;2023-08-20T08:02:16;5.38;;;4.43;;
49101;SDS011;34913;47.520;19.186;2023-08-20T08:04:43;6.50;;;4.60;;
49101;SDS011;34913;47.520;19.186;2023-08-20T08:07:09;6.60;;;4.40;;
49101;SDS011;34913;47.520;19.186;2023-08-20T08:09:36;5.40;;;4.40;;
49101;SDS011;34913;47.520;19.186;2023-08-20T08:12:02;6.30;;;4.30;;
49101;SDS011;34913;47.520;19.186;2023-08-20T08:14:28;5.57;;;4.65;;
49101;SDS011;34913;47.520;19.186;2023-08-20T08:16:54;5.55;;;4.97;;
49101;SDS011;34913;47.520;19.186;2023-08-20T08:19:20;5.47;;;4.47;;
49101;SDS011;34913;47.520;19.186;2023-08-20T08:21:45;6.47;;;5.03;;
49101;SDS011;34913;47.520;19.186;2023-08-20T08:24:11;5.90;;;4.50;;
49101;SDS011;34913;47.520;19.186;2023-08-20T08:26:38;5.50;;;5.00;;
49101;SDS011;34913;47.520;19.186;2023-08-20T08:29:03;5.45;;;4.90;;
49101;SDS011;34913;47.520;19.186;2023-08-20T08:31:29;5.88;;;4.60;;
49101;SDS011;34913;47.520;19.186;2023-08-20T08:33:55;5.78;;;4.63;;
49101;SDS011;34913;47.520;19.186;2023-08-20T08:36:23;5.65;;;5.10;;
49101;SDS011;34913;47.520;19.186;2023-08-20T08:38:50;5.07;;;4.68;;
49101;SDS011;34913;47.520;19.186;2023-08-20T08:41:16;9.52;;;5.85;;
49101;SDS011;34913;47.520;19.186;2023-08-20T08:43:41;5.57;;;5.07;;
49101;SDS011;34913;47.520;19.186;2023-08-20T08:46:07;10.18;;;5.15;;
49101;SDS011;34913;47.520;19.186;2023-08-20T08:48:36;5.70;;;5.20;;
49101;SDS011;34913;47.520;19.186;2023-08-20T08:51:04;5.50;;;5.00;;
49101;SDS011;34913;47.520;19.186;2023-08-20T08:53:30;9.65;;;4.78;;
49101;SDS011;34913;47.520;19.186;2023-08-20T08:55:57;7.28;;;4.57;;
49101;SDS011;34913;47.520;19.186;2023-08-20T08:58:22;5.93;;;4.93;;
49101;SDS011;34913;47.520;19.186;2023-08-20T09:00:48;6.60;;;4.78;;
49101;SDS011;34913;47.520;19.186;2023-08-20T09:03:14;6.20;;;4.70;;
49101;SDS011;34913;47.520;19.186;2023-08-20T09:05:50;5.38;;;4.70;;
49101;SDS011;34913;47.520;19.186;2023-08-20T09:08:23;6.45;;;4.70;;
49101;SDS011;34913;47.520;19.186;2023-08-20T09:10:52;4.70;;;4.30;;
49101;SDS011;34913;47.520;19.186;2023-08-20T09:13:22;7.68;;;4.45;;
49101;SDS011;34913;47.520;19.186;2023-08-20T09:15:50;6.85;;;4.85;;
49101;SDS011;34913;47.520;19.186;2023-08-20T09:18:17;5.03;;;4.53;;
49101;SDS011;34913;47.520;19.186;2023-08-20T09:20:42;6.97;;;4.80;;
49101;SDS011;34913;47.520;19.186;2023-08-20T09:23:11;4.70;;;4.28;;
49101;SDS011;34913;47.520;19.186;2023-08-20T09:25:38;5.28;;;4.55;;
49101;SDS011;34913;47.520;19.186;2023-08-20T09:28:04;8.85;;;4.35;;
49101;SDS011;34913;47.520;19.186;2023-08-20T09:30:30;5.53;;;4.40;;
49101;SDS011;34913;47.520;19.186;2023-08-20T09:33:07;7.80;;;4.50;;
49101;SDS011;34913;47.520;19.186;2023-08-20T09:35:35;6.57;;;4.18;;
49101;SDS011;34913;47.520;19.186;2023-08-20T09:38:02;6.53;;;4.38;;
49101;SDS011;34913;47.520;19.186;2023-08-20T09:40:28;5.25;;;4.45;;
49101;SDS011;34913;47.520;19.186;2023-08-20T09:42:55;5.25;;;4.35;;
49101;SDS011;34913;47.520;19.186;2023-08-20T09:45:21;6.38;;;4.47;;
49101;SDS011;34913;47.520;19.186;2023-08-20T09:47:54;5.38;;;4.80;;
49101;SDS011;34913;47.520;19.186;2023-08-20T09:50:22;6.28;;;4.68;;
49101;SDS011;34913;47.520;19.186;2023-08-20T09:52:53;6.35;;;4.70;;
49101;SDS011;34913;47.520;19.186;2023-08-20T09:55:22;7.38;;;4.75;;
49101;SDS011;34913;47.520;19.186;2023-08-20T09:57:54;4.78;;;4.28;;
49101;SDS011;34913;47.520;19.186;2023-08-20T10:00:21;5.15;;;4.65;;
49101;SDS011;34913;47.520;19.186;2023-08-20T10:02:47;6.40;;;4.55;;
49101;SDS011;34913;47.520;19.186;2023-08-20T10:05:13;7.13;;;4.45;;
49101;SDS011;34913;47.520;19.186;2023-08-20T10:07:40;6.40;;;4.68;;
49101;SDS011;34913;47.520;19.186;2023-08-20T10:10:08;6.38;;;4.65;;
49101;SDS011;34913;47.520;19.186;2023-08-20T10:12:36;5.60;;;4.50;;
49101;SDS011;34913;47.520;19.186;2023-08-20T10:15:04;7.18;;;4.55;;
49101;SDS011;34913;47.520;19.186;2023-08-20T10:17:33;4.60;;;4.20;;
49101;SDS011;34913;47.520;19.186;2023-08-20T10:20:00;6.75;;;4.55;;
49101;SDS011;34913;47.520;19.186;2023-08-20T10:22:47;6.68;;;4.30;;
49101;SDS011;34913;47.520;19.186;2023-08-20T10:25:24;8.57;;;4.70;;
49101;SDS011;34913;47.520;19.186;2023-08-20T10:27:51;4.90;;;4.50;;
49101;SDS011;34913;47.520;19.186;2023-08-20T10:30:18;4.70;;;4.30;;
49101;SDS011;34913;47.520;19.186;2023-08-20T10:40:48;6.68;;;4.78;;
49101;SDS011;34913;47.520;19.186;2023-08-20T10:46:18;5.53;;;4.30;;
49101;SDS011;34913;47.520;19.186;2023-08-20T10:48:49;10.02;;;4.45;;
49101;SDS011;34913;47.520;19.186;2023-08-20T10:51:18;7.20;;;4.60;;
49101;SDS011;34913;47.520;19.186;2023-08-20T10:56:38;4.75;;;4.20;;
49101;SDS011;34913;47.520;19.186;2023-08-20T10:59:18;6.15;;;5.55;;
49101;SDS011;34913;47.520;19.186;2023-08-20T11:01:47;7.63;;;4.55;;
49101;SDS011;34913;47.520;19.186;2023-08-20T11:04:18;6.25;;;4.45;;
49101;SDS011;34913;47.520;19.186;2023-08-20T11:06:45;5.05;;;4.45;;
49101;SDS011;34913;47.520;19.186;2023-08-20T11:09:11;6.53;;;4.30;;
49101;SDS011;34913;47.520;19.186;2023-08-20T11:11:38;9.77;;;6.57;;
49101;SDS011;34913;47.520;19.186;2023-08-20T11:14:08;9.98;;;4.18;;
49101;SDS011;34913;47.520;19.186;2023-08-20T11:16:42;6.50;;;4.05;;
49101;SDS011;34913;47.520;19.186;2023-08-20T11:19:11;11.15;;;5.50;;
49101;SDS011;34913;47.520;19.186;2023-08-20T11:21:42;11.15;;;6.03;;
49101;SDS011;34913;47.520;19.186;2023-08-20T11:24:08;6.45;;;4.45;;
49101;SDS011;34913;47.520;19.186;2023-08-20T11:26:35;4.80;;;3.90;;
49101;SDS011;34913;47.520;19.186;2023-08-20T11:29:10;7.57;;;4.75;;
49101;SDS011;34913;47.520;19.186;2023-08-20T11:31:42;9.52;;;8.60;;
49101;SDS011;34913;47.520;19.186;2023-08-20T11:34:07;16.75;;;12.63;;
49101;SDS011;34913;47.520;19.186;2023-08-20T11:36:33;7.45;;;6.53;;
49101;SDS011;34913;47.520;19.186;2023-08-20T11:39:00;6.65;;;4.57;;
49101;SDS011;34913;47.520;19.186;2023-08-20T11:41:25;8.95;;;5.50;;
49101;SDS011;34913;47.520;19.186;2023-08-20T11:43:51;10.48;;;5.28;;
49101;SDS011;34913;47.520;19.186;2023-08-20T11:46:19;8.23;;;5.03;;
49101;SDS011;34913;47.520;19.186;2023-08-20T11:51:28;5.97;;;5.10;;
49101;SDS011;34913;47.520;19.186;2023-08-20T11:53:54;9.25;;;7.38;;
49101;SDS011;34913;47.520;19.186;2023-08-20T11:56:22;6.40;;;4.75;;
49101;SDS011;34913;47.520;19.186;2023-08-20T11:58:51;9.35;;;5.72;;
49101;SDS011;34913;47.520;19.186;2023-08-20T12:01:20;6.22;;;5.60;;
49101;SDS011;34913;47.520;19.186;2023-08-20T12:03:45;6.75;;;4.43;;
49101;SDS011;34913;47.520;19.186;2023-08-20T12:06:20;8.77;;;4.63;;
49101;SDS011;34913;47.520;19.186;2023-08-20T12:08:47;8.57;;;4.40;;
49101;SDS011;34913;47.520;19.186;2023-08-20T12:11:13;4.95;;;4.43;;
49101;SDS011;34913;47.520;19.186;2023-08-20T12:13:38;6.07;;;4.60;;
49101;SDS011;34913;47.520;19.186;2023-08-20T12:16:04;6.85;;;4.90;;
49101;SDS011;34913;47.520;19.186;2023-08-20T12:18:30;6.97;;;4.55;;
49101;SDS011;34913;47.520;19.186;2023-08-20T12:20:56;5.32;;;4.40;;
49101;SDS011;34913;47.520;19.186;2023-08-20T12:23:21;9.30;;;4.18;;
49101;SDS011;34913;47.520;19.186;2023-08-20T12:25:51;5.13;;;4.63;;
49101;SDS011;34913;47.520;19.186;2023-08-20T12:28:16;9.85;;;4.45;;
49101;SDS011;34913;47.520;19.186;2023-08-20T12:30:42;5.30;;;4.60;;
49101;SDS011;34913;47.520;19.186;2023-08-20T12:33:08;7.28;;;4.60;;
49101;SDS011;34913;47.520;19.186;2023-08-20T12:35:34;7.28;;;4.00;;
49101;SDS011;34913;47.520;19.186;2023-08-20T12:38:00;6.15;;;4.28;;
49101;SDS011;34913;47.520;19.186;2023-08-20T12:40:26;5.10;;;4.60;;
49101;SDS011;34913;47.520;19.186;2023-08-20T12:42:51;7.55;;;4.35;;
49101;SDS011;34913;47.520;19.186;2023-08-20T12:45:16;9.80;;;5.10;;
49101;SDS011;34913;47.520;19.186;2023-08-20T12:47:42;7.25;;;4.80;;
49101;SDS011;34913;47.520;19.186;2023-08-20T12:50:07;7.55;;;4.38;;
49101;SDS011;34913;47.520;19.186;2023-08-20T12:52:33;6.35;;;4.70;;
49101;SDS011;34913;47.520;19.186;2023-08-20T12:54:59;5.78;;;4.43;;
49101;SDS011;34913;47.520;19.186;2023-08-20T12:57:26;5.97;;;4.90;;
49101;SDS011;34913;47.520;19.186;2023-08-20T12:59:53;8.02;;;4.72;;
49101;SDS011;34913;47.520;19.186;2023-08-20T13:02:19;5.63;;;4.88;;
49101;SDS011;34913;47.520;19.186;2023-08-20T13:04:45;5.22;;;4.70;;
49101;SDS011;34913;47.520;19.186;2023-08-20T13:07:11;5.18;;;4.63;;
49101;SDS011;34913;47.520;19.186;2023-08-20T13:09:38;5.15;;;4.45;;
49101;SDS011;34913;47.520;19.186;2023-08-20T13:12:04;10.15;;;4.68;;
49101;SDS011;34913;47.520;19.186;2023-08-20T13:14:34;5.85;;;4.68;;
49101;SDS011;34913;47.520;19.186;2023-08-20T13:17:00;7.53;;;4.63;;
49101;SDS011;34913;47.520;19.186;2023-08-20T13:19:25;5.13;;;4.43;;
49101;SDS011;34913;47.520;19.186;2023-08-20T13:21:51;5.95;;;4.70;;
49101;SDS011;34913;47.520;19.186;2023-08-20T13:24:16;8.00;;;4.70;;
49101;SDS011;34913;47.520;19.186;2023-08-20T13:26:42;6.55;;;4.72;;
49101;SDS011;34913;47.520;19.186;2023-08-20T13:29:07;5.25;;;4.75;;
49101;SDS011;34913;47.520;19.186;2023-08-20T13:31:32;6.25;;;4.90;;
49101;SDS011;34913;47.520;19.186;2023-08-20T13:33:58;5.88;;;5.28;;
49101;SDS011;34913;47.520;19.186;2023-08-20T13:36:23;5.25;;;4.72;;
49101;SDS011;34913;47.520;19.186;2023-08-20T13:38:49;6.15;;;5.07;;
49101;SDS011;34913;47.520;19.186;2023-08-20T13:41:14;5.18;;;4.70;;
49101;SDS011;34913;47.520;19.186;2023-08-20T13:43:40;8.43;;;4.97;;
49101;SDS011;34913;47.520;19.186;2023-08-20T13:46:05;5.32;;;4.82;;
49101;SDS011;34913;47.520;19.186;2023-08-20T13:48:30;6.95;;;5.00;;
49101;SDS011;34913;47.520;19.186;2023-08-20T13:50:56;7.93;;;5.10;;
49101;SDS011;34913;47.520;19.186;2023-08-20T13:53:21;6.90;;;4.90;;
49101;SDS011;34913;47.520;19.186;2023-08-20T13:55:47;5.75;;;5.15;;
49101;SDS011;34913;47.520;19.186;2023-08-20T13:58:12;6.43;;;5.07;;
49101;SDS011;34913;47.520;19.186;2023-08-20T14:00:38;5.38;;;4.88;;
49101;SDS011;34913;47.520;19.186;2023-08-20T14:03:03;5.30;;;4.80;;
49101;SDS011;34913;47.520;19.186;2023-08-20T14:05:29;7.00;;;5.22;;
49101;SDS011;34913;47.520;19.186;2023-08-20T14:07:54;5.40;;;4.90;;
49101;SDS011;34913;47.520;19.186;2023-08-20T14:10:20;7.57;;;4.97;;
49101;SDS011;34913;47.520;19.186;2023-08-20T14:12:45;5.35;;;4.85;;
49101;SDS011;34913;47.520;19.186;2023-08-20T14:15:11;6.55;;;4.65;;
49101;SDS011;34913;47.520;19.186;2023-08-20T14:17:36;6.13;;;4.80;;
49101;SDS011;34913;47.520;19.186;2023-08-20T14:20:02;5.53;;;4.97;;
49101;SDS011;34913;47.520;19.186;2023-08-20T14:22:28;6.70;;;5.00;;
49101;SDS011;34913;47.520;19.186;2023-08-20T14:24:54;5.28;;;4.80;;
49101;SDS011;34913;47.520;19.186;2023-08-20T14:27:19;8.43;;;4.82;;
49101;SDS011;34913;47.520;19.186;2023-08-20T14:29:45;7.50;;;5.10;;
49101;SDS011;34913;47.520;19.186;2023-08-20T14:32:10;6.55;;;5.03;;
49101;SDS011;34913;47.520;19.186;2023-08-20T14:34:36;8.13;;;4.90;;
49101;SDS011;34913;47.520;19.186;2023-08-20T14:37:01;7.40;;;5.10;;
49101;SDS011;34913;47.520;19.186;2023-08-20T14:39:26;7.22;;;5.15;;
49101;SDS011;34913;47.520;19.186;2023-08-20T14:41:52;6.10;;;5.10;;
49101;SDS011;34913;47.520;19.186;2023-08-20T14:44:17;7.40;;;4.88;;
49101;SDS011;34913;47.520;19.186;2023-08-20T14:46:43;6.95;;;4.55;;
49101;SDS011;34913;47.520;19.186;2023-08-20T14:49:08;7.20;;;5.10;;
49101;SDS011;34913;47.520;19.186;2023-08-20T14:51:34;7.55;;;4.78;;